Time,TemperatureF,DewpointF,PressureIn,WindDirection,WindDirectionDegrees,WindSpeedMPH,WindSpeedGustMPH,Humidity,HourlyPrecipIn,Conditions,Clouds,dailyrainin,SoftwareType,DateUTC
2013-08-09 00:02:00,73.0,71.8,29.55,ESE,105,0.0,0.0,96,0.00,,,0.09,Wunderground v.1.15,2013-08-09 05:02:00,
2013-08-09 00:07:00,73.0,71.8,29.55,ESE,103,0.0,0.0,96,0.00,,,0.09,Wunderground v.1.15,2013-08-09 05:07:00,
2013-08-09 00:13:00,72.9,71.7,29.55,ESE,103,0.0,0.0,96,0.00,,,0.09,Wunderground v.1.15,2013-08-09 05:13:00,
2013-08-09 00:19:00,72.8,71.6,29.55,ESE,103,0.0,0.0,96,0.00,,,0.09,Wunderground v.1.15,2013-08-09 05:19:00,
2013-08-09 00:24:00,72.8,71.6,29.54,ESE,103,0.0,0.0,96,0.00,,,0.09,Wunderground v.1.15,2013-08-09 05:24:00,
2013-08-09 00:29:00,72.8,71.6,29.54,SE,131,0.0,0.0,96,0.00,,,0.09,Wunderground v.1.15,2013-08-09 05:29:00,
2013-08-09 00:34:00,72.8,71.6,29.54,ESE,111,0.0,1.0,96,0.00,,,0.09,Wunderground v.1.15,2013-08-09 05:34:00,
2013-08-09 00:40:00,72.8,71.6,29.54,ESE,111,0.0,0.0,96,0.00,,,0.09,Wunderground v.1.15,2013-08-09 05:40:00,
2013-08-09 00:45:00,72.8,71.6,29.54,ESE,112,0.0,0.0,96,0.00,,,0.09,Wunderground v.1.15,2013-08-09 05:45:00,
2013-08-09 00:51:00,72.7,71.5,29.54,ESE,113,0.0,0.0,96,0.00,,,0.09,Wunderground v.1.15,2013-08-09 05:51:00,
2013-08-09 00:56:00,72.7,71.5,29.54,WSW,252,0.0,0.0,96,0.00,,,0.09,Wunderground v.1.15,2013-08-09 05:56:00,
2013-08-09 01:01:00,72.6,71.4,29.55,WSW,250,0.0,0.0,96,0.00,,,0.09,Wunderground v.1.15,2013-08-09 06:01:00,
2013-08-09 01:06:00,72.5,71.3,29.55,ESE,110,0.0,0.0,96,0.00,,,0.09,Wunderground v.1.15,2013-08-09 06:06:00,
2013-08-09 01:12:00,72.6,71.4,29.55,East,96,0.0,0.0,96,0.00,,,0.09,Wunderground v.1.15,2013-08-09 06:12:00,
2013-08-09 01:17:00,72.7,71.5,29.55,NNW,345,0.0,1.0,96,0.00,,,0.09,Wunderground v.1.15,2013-08-09 06:17:00,
2013-08-09 01:22:00,72.8,71.6,29.55,ENE,60,0.0,0.0,96,0.00,,,0.09,Wunderground v.1.15,2013-08-09 06:22:00,
2013-08-09 01:28:00,72.9,71.7,29.55,SE,134,0.0,1.0,96,0.00,,,0.09,Wunderground v.1.15,2013-08-09 06:28:00,
2013-08-09 01:33:00,72.8,71.6,29.55,SE,136,0.0,0.0,96,0.00,,,0.09,Wunderground v.1.15,2013-08-09 06:33:00,
2013-08-09 01:38:00,72.8,71.6,29.56,SSE,150,0.0,1.0,96,0.00,,,0.09,Wunderground v.1.15,2013-08-09 06:38:00,
2013-08-09 01:44:00,72.7,71.5,29.55,SSE,150,0.0,0.0,96,0.00,,,0.09,Wunderground v.1.15,2013-08-09 06:44:00,
2013-08-09 01:49:00,72.7,71.5,29.55,SE,136,0.0,1.0,96,0.00,,,0.09,Wunderground v.1.15,2013-08-09 06:49:00,
2013-08-09 01:54:00,72.8,71.6,29.54,East,101,1.0,1.0,96,0.00,,,0.09,Wunderground v.1.15,2013-08-09 06:54:00,
2013-08-09 01:59:00,72.8,71.6,29.55,SE,127,1.0,1.0,96,0.00,,,0.09,Wunderground v.1.15,2013-08-09 06:59:00,
2013-08-09 02:04:00,72.7,71.5,29.55,East,99,2.0,2.0,96,0.00,,,0.09,Wunderground v.1.15,2013-08-09 07:04:00,
2013-08-09 02:09:00,72.6,71.4,29.55,SE,132,2.0,2.0,96,0.00,,,0.09,Wunderground v.1.15,2013-08-09 07:09:00,
2013-08-09 02:14:00,72.5,71.3,29.56,SSW,205,0.0,3.0,96,0.00,,,0.09,Wunderground v.1.15,2013-08-09 07:14:00,
2013-08-09 02:19:00,72.5,71.3,29.56,SW,214,1.0,1.0,96,0.00,,,0.09,Wunderground v.1.15,2013-08-09 07:19:00,
2013-08-09 02:25:00,72.4,71.2,29.56,SW,236,0.0,2.0,96,0.00,,,0.09,Wunderground v.1.15,2013-08-09 07:25:00,
2013-08-09 02:30:00,72.4,71.2,29.56,SW,214,1.0,2.0,96,0.00,,,0.09,Wunderground v.1.15,2013-08-09 07:30:00,
2013-08-09 02:35:00,72.2,71.0,29.57,WSW,240,3.0,4.0,96,0.00,,,0.09,Wunderground v.1.15,2013-08-09 07:35:00,
2013-08-09 02:40:00,72.1,70.9,29.58,WSW,255,2.0,5.0,96,0.00,,,0.09,Wunderground v.1.15,2013-08-09 07:40:00,
2013-08-09 02:45:00,72.0,70.8,29.59,SSW,208,5.0,9.0,96,0.41,,,0.11,Wunderground v.1.15,2013-08-09 07:45:00,
2013-08-09 02:50:00,71.6,70.1,29.60,SSE,149,6.0,11.0,95,4.57,,,0.36,Wunderground v.1.15,2013-08-09 07:50:00,
2013-08-09 02:55:00,70.7,68.9,29.58,SW,231,0.0,11.0,94,0.80,,,0.54,Wunderground v.1.15,2013-08-09 07:55:00,
2013-08-09 03:00:00,70.0,68.5,29.58,WSW,246,1.0,3.0,95,0.13,,,0.56,Wunderground v.1.15,2013-08-09 08:00:00,
2013-08-09 03:05:00,69.7,68.5,29.58,SW,236,0.0,3.0,96,0.30,,,0.58,Wunderground v.1.15,2013-08-09 08:05:00,
2013-08-09 03:10:00,69.5,68.3,29.59,West,269,0.0,1.0,96,0.09,,,0.58,Wunderground v.1.15,2013-08-09 08:10:00,
2013-08-09 03:15:00,69.3,68.4,29.59,West,267,0.0,1.0,97,0.08,,,0.59,Wunderground v.1.15,2013-08-09 08:15:00,
2013-08-09 03:20:00,69.2,68.3,29.59,SSW,211,0.0,0.0,97,0.10,,,0.60,Wunderground v.1.15,2013-08-09 08:20:00,
2013-08-09 03:25:00,69.1,68.2,29.58,SW,218,0.0,2.0,97,0.14,,,0.61,Wunderground v.1.15,2013-08-09 08:25:00,
2013-08-09 03:30:00,69.0,68.4,29.58,SW,224,1.0,2.0,98,0.12,,,0.62,Wunderground v.1.15,2013-08-09 08:30:00,
2013-08-09 03:35:00,68.9,68.3,29.58,WSW,249,0.0,3.0,98,0.09,,,0.63,Wunderground v.1.15,2013-08-09 08:35:00,
2013-08-09 03:40:00,68.8,68.2,29.57,SW,218,2.0,3.0,98,0.08,,,0.64,Wunderground v.1.15,2013-08-09 08:40:00,
2013-08-09 03:45:00,68.7,68.1,29.57,WSW,248,0.0,3.0,98,0.08,,,0.64,Wunderground v.1.15,2013-08-09 08:45:00,
2013-08-09 03:50:00,68.5,67.9,29.57,SW,233,0.0,1.0,98,0.06,,,0.64,Wunderground v.1.15,2013-08-09 08:50:00,
2013-08-09 03:55:00,68.5,67.9,29.56,WNW,284,0.0,1.0,98,0.04,,,0.64,Wunderground v.1.15,2013-08-09 08:55:00,
2013-08-09 04:00:00,68.4,67.8,29.55,WNW,285,0.0,1.0,98,0.00,,,0.64,Wunderground v.1.15,2013-08-09 09:00:00,
2013-08-09 04:05:00,68.4,67.8,29.55,West,280,2.0,3.0,98,0.00,,,0.64,Wunderground v.1.15,2013-08-09 09:05:00,
2013-08-09 04:10:00,68.4,67.8,29.55,WNW,287,0.0,1.0,98,0.00,,,0.64,Wunderground v.1.15,2013-08-09 09:10:00,
2013-08-09 04:15:00,68.5,67.9,29.54,SW,226,0.0,2.0,98,0.00,,,0.64,Wunderground v.1.15,2013-08-09 09:15:00,
2013-08-09 04:16:00,68.5,67.9,29.54,SW,226,0.0,2.0,98,0.00,,,0.64,Wunderground v.1.15,2013-08-09 09:16:00,
2013-08-09 04:21:00,68.4,67.8,29.54,WSW,252,0.0,1.0,98,0.00,,,0.64,Wunderground v.1.15,2013-08-09 09:21:00,
2013-08-09 04:26:00,68.5,67.9,29.54,WSW,252,0.0,1.0,98,0.00,,,0.64,Wunderground v.1.15,2013-08-09 09:26:00,
2013-08-09 04:31:00,68.5,67.9,29.53,WSW,253,0.0,0.0,98,0.00,,,0.64,Wunderground v.1.15,2013-08-09 09:31:00,
2013-08-09 04:36:00,68.5,67.9,29.55,South,174,2.0,2.0,98,0.00,,,0.64,Wunderground v.1.15,2013-08-09 09:36:00,
2013-08-09 04:41:00,68.4,67.8,29.57,SSW,193,3.0,6.0,98,0.00,,,0.64,Wunderground v.1.15,2013-08-09 09:41:00,
2013-08-09 04:46:00,68.3,67.7,29.57,WSW,242,2.0,6.0,98,0.00,,,0.64,Wunderground v.1.15,2013-08-09 09:46:00,
2013-08-09 04:51:00,68.3,67.7,29.56,SW,232,0.0,2.0,98,0.00,,,0.64,Wunderground v.1.15,2013-08-09 09:51:00,
2013-08-09 04:56:00,68.2,67.6,29.56,West,262,0.0,2.0,98,0.00,,,0.64,Wunderground v.1.15,2013-08-09 09:56:00,
2013-08-09 05:01:00,68.3,67.7,29.55,NNE,12,0.0,1.0,98,0.00,,,0.64,Wunderground v.1.15,2013-08-09 10:01:00,
2013-08-09 05:06:00,68.3,67.7,29.54,NNW,337,0.0,1.0,98,0.00,,,0.64,Wunderground v.1.15,2013-08-09 10:06:00,
2013-08-09 05:11:00,68.3,67.7,29.55,NW,305,0.0,1.0,98,0.00,,,0.64,Wunderground v.1.15,2013-08-09 10:11:00,
2013-08-09 05:16:00,68.3,67.7,29.55,WNW,289,0.0,1.0,98,0.00,,,0.64,Wunderground v.1.15,2013-08-09 10:16:00,
2013-08-09 05:21:00,68.3,67.7,29.55,SE,146,0.0,0.0,98,0.00,,,0.64,Wunderground v.1.15,2013-08-09 10:21:00,
2013-08-09 05:26:00,68.3,67.7,29.55,SE,136,1.0,1.0,98,0.00,,,0.64,Wunderground v.1.15,2013-08-09 10:26:00,
2013-08-09 05:31:00,68.3,67.7,29.56,SSE,152,0.0,2.0,98,0.00,,,0.64,Wunderground v.1.15,2013-08-09 10:31:00,
2013-08-09 05:36:00,68.3,67.7,29.56,SE,139,0.0,2.0,98,0.00,,,0.64,Wunderground v.1.15,2013-08-09 10:36:00,
2013-08-09 05:41:00,68.3,67.7,29.56,SSE,152,2.0,3.0,98,0.00,,,0.64,Wunderground v.1.15,2013-08-09 10:41:00,
2013-08-09 05:46:00,68.2,67.6,29.57,SE,143,1.0,3.0,98,0.00,,,0.64,Wunderground v.1.15,2013-08-09 10:46:00,
2013-08-09 05:51:00,68.2,67.6,29.56,SE,136,0.0,1.0,98,0.00,,,0.64,Wunderground v.1.15,2013-08-09 10:51:00,
2013-08-09 05:56:00,68.2,67.6,29.56,SE,137,0.0,1.0,98,0.00,,,0.64,Wunderground v.1.15,2013-08-09 10:56:00,
2013-08-09 06:01:00,68.1,67.5,29.56,SE,137,0.0,0.0,98,0.00,,,0.64,Wunderground v.1.15,2013-08-09 11:01:00,
2013-08-09 06:06:00,68.1,67.5,29.57,SE,136,0.0,0.0,98,0.00,,,0.64,Wunderground v.1.15,2013-08-09 11:06:00,
2013-08-09 06:11:00,68.1,67.5,29.57,SE,136,0.0,0.0,98,0.00,,,0.64,Wunderground v.1.15,2013-08-09 11:11:00,
2013-08-09 06:12:00,68.1,67.5,29.57,SSE,149,0.0,0.0,98,0.00,,,0.64,Wunderground v.1.15,2013-08-09 11:12:00,
2013-08-09 06:17:00,68.1,67.5,29.58,SSE,155,0.0,1.0,98,0.00,,,0.64,Wunderground v.1.15,2013-08-09 11:17:00,
2013-08-09 06:22:00,68.1,67.5,29.58,SW,218,0.0,0.0,98,0.00,,,0.64,Wunderground v.1.15,2013-08-09 11:22:00,
2013-08-09 06:27:00,68.1,67.5,29.58,SSW,211,1.0,2.0,98,0.00,,,0.64,Wunderground v.1.15,2013-08-09 11:27:00,
2013-08-09 06:32:00,68.2,67.6,29.59,SSW,208,0.0,0.0,98,0.00,,,0.64,Wunderground v.1.15,2013-08-09 11:32:00,
2013-08-09 06:37:00,68.1,67.5,29.58,SE,141,2.0,2.0,98,0.00,,,0.64,Wunderground v.1.15,2013-08-09 11:37:00,
2013-08-09 06:42:00,68.2,67.6,29.58,SE,140,0.0,1.0,98,0.00,,,0.64,Wunderground v.1.15,2013-08-09 11:42:00,
2013-08-09 06:47:00,68.2,67.6,29.58,West,271,0.0,1.0,98,0.00,,,0.64,Wunderground v.1.15,2013-08-09 11:47:00,
2013-08-09 06:52:00,68.2,67.6,29.58,West,271,0.0,0.0,98,0.00,,,0.64,Wunderground v.1.15,2013-08-09 11:52:00,
2013-08-09 06:57:00,68.3,67.7,29.59,West,271,0.0,0.0,98,0.00,,,0.64,Wunderground v.1.15,2013-08-09 11:57:00,
2013-08-09 07:02:00,68.3,67.7,29.59,West,271,0.0,0.0,98,0.00,,,0.64,Wunderground v.1.15,2013-08-09 12:02:00,
2013-08-09 07:07:00,68.3,67.7,29.59,WSW,238,0.0,1.0,98,0.00,,,0.64,Wunderground v.1.15,2013-08-09 12:07:00,
2013-08-09 07:12:00,68.3,67.7,29.59,WSW,239,0.0,0.0,98,0.00,,,0.64,Wunderground v.1.15,2013-08-09 12:12:00,
2013-08-09 07:17:00,68.5,67.9,29.58,NNW,337,2.0,2.0,98,0.00,,,0.64,Wunderground v.1.15,2013-08-09 12:17:00,
2013-08-09 07:22:00,68.8,68.2,29.59,NW,319,2.0,4.0,98,0.00,,,0.64,Wunderground v.1.15,2013-08-09 12:22:00,
2013-08-09 07:27:00,69.5,68.9,29.59,NW,316,0.0,4.0,98,0.00,,,0.64,Wunderground v.1.15,2013-08-09 12:27:00,
2013-08-09 07:32:00,69.6,69.0,29.59,North,355,1.0,1.0,98,0.00,,,0.64,Wunderground v.1.15,2013-08-09 12:32:00,
2013-08-09 07:37:00,69.8,69.2,29.59,ENE,68,0.0,1.0,98,0.00,,,0.64,Wunderground v.1.15,2013-08-09 12:37:00,
2013-08-09 07:42:00,69.7,69.1,29.59,North,11,0.0,1.0,98,0.00,,,0.64,Wunderground v.1.15,2013-08-09 12:42:00,
2013-08-09 07:47:00,69.8,69.2,29.59,NNW,347,0.0,3.0,98,0.00,,,0.64,Wunderground v.1.15,2013-08-09 12:47:00,
2013-08-09 07:52:00,70.0,69.4,29.59,NW,314,0.0,1.0,98,0.00,,,0.64,Wunderground v.1.15,2013-08-09 12:52:00,
2013-08-09 07:57:00,70.2,69.6,29.59,SE,134,0.0,2.0,98,0.00,,,0.64,Wunderground v.1.15,2013-08-09 12:57:00,
2013-08-09 08:02:00,70.3,69.7,29.60,SE,143,2.0,2.0,98,0.00,,,0.64,Wunderground v.1.15,2013-08-09 13:02:00,
2013-08-09 08:07:00,70.4,69.8,29.60,SE,139,2.0,2.0,98,0.00,,,0.64,Wunderground v.1.15,2013-08-09 13:07:00,
2013-08-09 08:12:00,70.5,69.9,29.60,SE,146,1.0,3.0,98,0.00,,,0.64,Wunderground v.1.15,2013-08-09 13:12:00,
2013-08-09 08:17:00,70.5,69.9,29.60,SE,129,1.0,3.0,98,0.00,,,0.64,Wunderground v.1.15,2013-08-09 13:17:00,
2013-08-09 08:22:00,70.5,69.9,29.61,SE,139,2.0,3.0,98,0.00,,,0.64,Wunderground v.1.15,2013-08-09 13:22:00,
2013-08-09 08:27:00,70.5,69.9,29.61,SE,139,0.0,3.0,98,0.00,,,0.65,Wunderground v.1.15,2013-08-09 13:27:00,
2013-08-09 08:32:00,70.6,70.0,29.61,SSE,155,0.0,1.0,98,0.00,,,0.65,Wunderground v.1.15,2013-08-09 13:32:00,
2013-08-09 08:37:00,70.5,69.9,29.61,SW,236,0.0,1.0,98,0.00,,,0.65,Wunderground v.1.15,2013-08-09 13:37:00,
2013-08-09 08:42:00,70.5,69.9,29.61,South,179,2.0,2.0,98,0.00,,,0.65,Wunderground v.1.15,2013-08-09 13:42:00,
2013-08-09 08:47:00,70.5,69.9,29.61,SSE,158,1.0,4.0,98,0.00,,,0.65,Wunderground v.1.15,2013-08-09 13:47:00,
2013-08-09 08:52:00,70.5,69.9,29.61,SW,217,0.0,2.0,98,0.00,,,0.65,Wunderground v.1.15,2013-08-09 13:52:00,
2013-08-09 08:57:00,70.5,69.9,29.61,SE,134,1.0,3.0,98,0.00,,,0.65,Wunderground v.1.15,2013-08-09 13:57:00,
2013-08-09 09:02:00,70.3,69.7,29.61,SE,136,0.0,3.0,98,0.00,,,0.65,Wunderground v.1.15,2013-08-09 14:02:00,
2013-08-09 09:07:00,70.6,70.0,29.61,SSE,167,0.0,3.0,98,0.00,,,0.65,Wunderground v.1.15,2013-08-09 14:07:00,
2013-08-09 09:12:00,70.7,70.1,29.61,SSW,213,1.0,2.0,98,0.00,,,0.65,Wunderground v.1.15,2013-08-09 14:12:00,
2013-08-09 09:17:00,71.1,70.5,29.61,SSE,158,0.0,2.0,98,0.00,,,0.65,Wunderground v.1.15,2013-08-09 14:17:00,
2013-08-09 09:22:00,71.3,70.7,29.61,ESE,112,0.0,1.0,98,0.00,,,0.65,Wunderground v.1.15,2013-08-09 14:22:00,
2013-08-09 09:27:00,71.4,70.8,29.61,SE,145,0.0,1.0,98,0.00,,,0.65,Wunderground v.1.15,2013-08-09 14:27:00,
2013-08-09 09:32:00,71.5,70.9,29.61,ESE,107,0.0,1.0,98,0.00,,,0.65,Wunderground v.1.15,2013-08-09 14:32:00,
2013-08-09 09:37:00,71.8,71.2,29.61,East,101,0.0,1.0,98,0.00,,,0.65,Wunderground v.1.15,2013-08-09 14:37:00,
2013-08-09 09:42:00,72.0,71.4,29.61,SE,136,0.0,2.0,98,0.00,,,0.65,Wunderground v.1.15,2013-08-09 14:42:00,
2013-08-09 09:47:00,72.3,71.4,29.61,SSW,212,0.0,2.0,97,0.00,,,0.65,Wunderground v.1.15,2013-08-09 14:47:00,
2013-08-09 09:52:00,72.6,71.7,29.62,West,262,0.0,1.0,97,0.00,,,0.65,Wunderground v.1.15,2013-08-09 14:52:00,
2013-08-09 09:57:00,72.6,71.7,29.62,NNE,29,1.0,2.0,97,0.00,,,0.65,Wunderground v.1.15,2013-08-09 14:57:00,
2013-08-09 10:02:00,72.4,71.5,29.62,NNE,18,2.0,2.0,97,0.00,,,0.65,Wunderground v.1.15,2013-08-09 15:02:00,
2013-08-09 10:08:00,72.4,71.5,29.61,NE,53,0.0,3.0,97,0.00,,,0.65,Wunderground v.1.15,2013-08-09 15:08:00,
2013-08-09 10:13:00,72.7,71.8,29.61,East,87,0.0,2.0,97,0.00,,,0.65,Wunderground v.1.15,2013-08-09 15:13:00,
2013-08-09 10:18:00,73.4,72.5,29.61,East,89,0.0,3.0,97,0.00,,,0.65,Wunderground v.1.15,2013-08-09 15:18:00,
2013-08-09 10:23:00,74.0,73.1,29.62,East,101,2.0,3.0,97,0.00,,,0.65,Wunderground v.1.15,2013-08-09 15:23:00,
2013-08-09 10:28:00,74.8,73.6,29.62,SW,236,1.0,5.0,96,0.00,,,0.65,Wunderground v.1.15,2013-08-09 15:28:00,
2013-08-09 10:33:00,75.9,73.7,29.62,WNW,284,1.0,2.0,93,0.00,,,0.65,Wunderground v.1.15,2013-08-09 15:33:00,
2013-08-09 10:38:00,76.1,73.3,29.62,NNE,13,3.0,4.0,91,0.00,,,0.65,Wunderground v.1.15,2013-08-09 15:38:00,
2013-08-09 10:43:00,76.5,73.3,29.62,NE,39,1.0,3.0,90,0.00,,,0.65,Wunderground v.1.15,2013-08-09 15:43:00,
2013-08-09 10:48:00,76.4,72.9,29.62,NNE,15,3.0,5.0,89,0.00,,,0.65,Wunderground v.1.15,2013-08-09 15:48:00,
2013-08-09 10:53:00,76.4,72.9,29.62,NNE,20,0.0,5.0,89,0.00,,,0.65,Wunderground v.1.15,2013-08-09 15:53:00,
2013-08-09 10:58:00,76.7,72.9,29.62,NE,49,2.0,5.0,88,0.00,,,0.65,Wunderground v.1.15,2013-08-09 15:58:00,
2013-08-09 11:03:00,76.8,72.6,29.62,NE,49,4.0,4.0,87,0.00,,,0.65,Wunderground v.1.15,2013-08-09 16:03:00,
2013-08-09 11:08:00,76.9,72.7,29.62,North,7,3.0,4.0,87,0.00,,,0.65,Wunderground v.1.15,2013-08-09 16:08:00,
2013-08-09 11:13:00,76.9,72.4,29.62,NNE,25,0.0,5.0,86,0.00,,,0.00,Wunderground v.1.15,2013-08-09 16:13:00,
2013-08-09 11:18:00,77.2,72.7,29.62,North,9,3.0,6.0,86,0.00,,,0.00,Wunderground v.1.15,2013-08-09 16:18:00,
2013-08-09 11:23:00,77.5,72.6,29.62,NW,320,4.0,5.0,85,0.00,,,0.00,Wunderground v.1.15,2013-08-09 16:23:00,
2013-08-09 11:28:00,77.9,72.7,29.62,WNW,294,4.0,5.0,84,0.00,,,0.00,Wunderground v.1.15,2013-08-09 16:28:00,
2013-08-09 11:33:00,77.9,72.7,29.62,NNE,25,3.0,5.0,84,0.00,,,0.00,Wunderground v.1.15,2013-08-09 16:33:00,
2013-08-09 11:38:00,78.1,72.9,29.62,North,349,3.0,5.0,84,0.00,,,0.00,Wunderground v.1.15,2013-08-09 16:38:00,
2013-08-09 11:43:00,78.0,72.8,29.61,NE,53,3.0,5.0,84,0.00,,,0.00,Wunderground v.1.15,2013-08-09 16:43:00,
2013-08-09 11:48:00,77.6,72.4,29.61,ENE,68,1.0,5.0,84,0.00,,,0.00,Wunderground v.1.15,2013-08-09 16:48:00,
2013-08-09 11:53:00,77.6,72.7,29.61,ENE,68,1.0,3.0,85,0.00,,,0.00,Wunderground v.1.15,2013-08-09 16:53:00,
2013-08-09 11:58:00,78.0,73.1,29.61,ENE,58,2.0,3.0,85,0.00,,,0.00,Wunderground v.1.15,2013-08-09 16:58:00,
2013-08-09 12:03:00,77.9,72.7,29.61,NW,307,0.0,3.0,84,0.00,,,0.00,Wunderground v.1.15,2013-08-09 17:03:00,
2013-08-09 12:08:00,78.2,73.0,29.61,ENE,66,1.0,3.0,84,0.00,,,0.00,Wunderground v.1.15,2013-08-09 17:08:00,
2013-08-09 12:13:00,77.9,72.3,29.61,ENE,62,0.0,2.0,83,0.00,,,0.00,Wunderground v.1.15,2013-08-09 17:13:00,
2013-08-09 12:18:00,78.1,72.9,29.61,NE,36,2.0,3.0,84,0.00,,,0.00,Wunderground v.1.15,2013-08-09 17:18:00,
2013-08-09 12:23:00,78.0,72.8,29.61,NE,54,0.0,3.0,84,0.00,,,0.00,Wunderground v.1.15,2013-08-09 17:23:00,
2013-08-09 12:28:00,78.0,73.1,29.61,NE,45,1.0,3.0,85,0.00,,,0.00,Wunderground v.1.15,2013-08-09 17:28:00,
2013-08-09 12:33:00,77.9,73.0,29.61,NNE,14,3.0,3.0,85,0.00,,,0.00,Wunderground v.1.15,2013-08-09 17:33:00,
2013-08-09 12:38:00,78.0,73.1,29.61,North,9,1.0,3.0,85,0.00,,,0.00,Wunderground v.1.15,2013-08-09 17:38:00,
2013-08-09 12:43:00,78.5,73.3,29.61,ENE,65,2.0,2.0,84,0.00,,,0.00,Wunderground v.1.15,2013-08-09 17:43:00,
2013-08-09 12:48:00,78.6,73.0,29.60,ENE,62,2.0,3.0,83,0.00,,,0.00,Wunderground v.1.15,2013-08-09 17:48:00,
2013-08-09 12:53:00,78.3,73.1,29.60,NE,54,3.0,3.0,84,0.00,,,0.00,Wunderground v.1.15,2013-08-09 17:53:00,
2013-08-09 12:58:00,78.8,73.6,29.60,North,6,1.0,3.0,84,0.00,,,0.00,Wunderground v.1.15,2013-08-09 17:58:00,
2013-08-09 13:03:00,79.8,73.4,29.60,North,360,0.0,3.0,81,0.00,,,0.00,Wunderground v.1.15,2013-08-09 18:03:00,
2013-08-09 13:08:00,80.2,73.8,29.60,NE,54,0.0,3.0,81,0.00,,,0.00,Wunderground v.1.15,2013-08-09 18:08:00,
2013-08-09 13:14:00,81.1,74.3,29.60,NNE,15,1.0,2.0,80,0.00,,,0.00,Wunderground v.1.15,2013-08-09 18:14:00,
2013-08-09 13:19:00,81.2,73.7,29.60,NNW,329,2.0,7.0,78,0.00,,,0.00,Wunderground v.1.15,2013-08-09 18:19:00,
2013-08-09 13:24:00,80.7,73.6,29.60,NE,43,3.0,5.0,79,0.00,,,0.00,Wunderground v.1.15,2013-08-09 18:24:00,
2013-08-09 13:29:00,80.0,72.9,29.60,North,351,5.0,5.0,79,0.00,,,0.00,Wunderground v.1.15,2013-08-09 18:29:00,
2013-08-09 13:34:00,79.7,73.3,29.60,North,4,5.0,5.0,81,0.00,,,0.00,Wunderground v.1.15,2013-08-09 18:34:00,
2013-08-09 13:39:00,79.5,73.2,29.60,NW,314,2.0,7.0,81,0.00,,,0.00,Wunderground v.1.15,2013-08-09 18:39:00,
2013-08-09 13:44:00,79.7,73.0,29.60,NNW,329,3.0,6.0,80,0.00,,,0.00,Wunderground v.1.15,2013-08-09 18:44:00,
2013-08-09 13:49:00,79.7,73.0,29.60,North,10,4.0,6.0,80,0.00,,,0.00,Wunderground v.1.15,2013-08-09 18:49:00,
2013-08-09 13:54:00,79.8,73.1,29.60,NNW,328,2.0,6.0,80,0.00,,,0.00,Wunderground v.1.15,2013-08-09 18:54:00,
2013-08-09 13:59:00,79.8,72.7,29.60,North,1,3.0,6.0,79,0.00,,,0.00,Wunderground v.1.15,2013-08-09 18:59:00,
2013-08-09 14:04:00,79.8,72.7,29.60,NW,316,1.0,5.0,79,0.00,,,0.00,Wunderground v.1.15,2013-08-09 19:04:00,
2013-08-09 14:09:00,79.9,73.2,29.60,NNE,29,0.0,5.0,80,0.00,,,0.00,Wunderground v.1.15,2013-08-09 19:09:00,
2013-08-09 14:14:00,80.4,73.3,29.59,ENE,58,3.0,5.0,79,0.00,,,0.00,Wunderground v.1.15,2013-08-09 19:14:00,
2013-08-09 14:19:00,80.1,72.6,29.59,NNE,23,4.0,6.0,78,0.00,,,0.00,Wunderground v.1.15,2013-08-09 19:19:00,
2013-08-09 14:24:00,80.2,72.7,29.59,NNW,334,3.0,5.0,78,0.00,,,0.00,Wunderground v.1.15,2013-08-09 19:24:00,
2013-08-09 14:29:00,80.3,72.8,29.59,NE,44,3.0,5.0,78,0.00,,,0.00,Wunderground v.1.15,2013-08-09 19:29:00,
2013-08-09 14:34:00,80.1,73.0,29.59,NNE,33,3.0,4.0,79,0.00,,,0.00,Wunderground v.1.15,2013-08-09 19:34:00,
2013-08-09 14:39:00,80.4,72.9,29.59,West,278,1.0,4.0,78,0.00,,,0.00,Wunderground v.1.15,2013-08-09 19:39:00,
2013-08-09 14:44:00,80.3,72.8,29.59,NNE,30,2.0,5.0,78,0.00,,,0.00,Wunderground v.1.15,2013-08-09 19:44:00,
2013-08-09 14:49:00,80.2,73.5,29.58,NNW,330,1.0,5.0,80,0.00,,,0.00,Wunderground v.1.15,2013-08-09 19:49:00,
2013-08-09 14:54:00,80.3,73.2,29.58,NNW,338,2.0,3.0,79,0.00,,,0.00,Wunderground v.1.15,2013-08-09 19:54:00,
2013-08-09 14:59:00,80.3,73.2,29.58,NNW,343,2.0,3.0,79,0.00,,,0.00,Wunderground v.1.15,2013-08-09 19:59:00,
2013-08-09 15:04:00,80.6,73.5,29.58,SW,226,3.0,3.0,79,0.00,,,0.00,Wunderground v.1.15,2013-08-09 20:04:00,
2013-08-09 15:09:00,80.5,72.6,29.59,SW,235,0.0,3.0,77,0.00,,,0.00,Wunderground v.1.15,2013-08-09 20:09:00,
2013-08-09 15:14:00,80.1,71.5,29.61,WNW,293,17.0,23.0,75,0.00,,,0.00,Wunderground v.1.15,2013-08-09 20:14:00,
2013-08-09 15:19:00,75.9,68.5,29.61,West,278,10.0,27.0,78,0.00,,,0.00,Wunderground v.1.15,2013-08-09 20:19:00,
2013-08-09 15:24:00,73.7,67.5,29.61,WNW,290,11.0,21.0,81,0.00,,,0.00,Wunderground v.1.15,2013-08-09 20:24:00,
2013-08-09 15:29:00,72.3,67.2,29.61,NW,307,10.0,21.0,84,0.00,,,0.00,Wunderground v.1.15,2013-08-09 20:29:00,
2013-08-09 15:34:00,71.6,67.5,29.61,WNW,299,11.0,15.0,87,0.00,,,0.00,Wunderground v.1.15,2013-08-09 20:34:00,
2013-08-09 15:39:00,71.7,67.6,29.61,NW,324,8.0,15.0,87,0.00,,,0.00,Wunderground v.1.15,2013-08-09 20:39:00,
2013-08-09 15:44:00,72.3,67.9,29.60,West,274,2.0,10.0,86,0.00,,,0.00,Wunderground v.1.15,2013-08-09 20:44:00,
2013-08-09 15:49:00,73.0,68.2,29.61,West,278,3.0,10.0,85,0.00,,,0.00,Wunderground v.1.15,2013-08-09 20:49:00,
2013-08-09 15:54:00,73.5,68.7,29.61,NW,326,1.0,6.0,85,0.00,,,0.00,Wunderground v.1.15,2013-08-09 20:54:00,
2013-08-09 15:59:00,73.7,68.2,29.61,WNW,293,1.0,6.0,83,0.00,,,0.00,Wunderground v.1.15,2013-08-09 20:59:00,
2013-08-09 16:04:00,73.6,68.5,29.61,West,278,5.0,7.0,84,0.00,,,0.00,Wunderground v.1.15,2013-08-09 21:04:00,
2013-08-09 16:09:00,73.3,68.5,29.61,NW,304,3.0,7.0,85,0.00,,,0.00,Wunderground v.1.15,2013-08-09 21:09:00,
2013-08-09 16:14:00,73.1,68.3,29.60,WNW,285,2.0,7.0,85,0.00,,,0.00,Wunderground v.1.15,2013-08-09 21:14:00,
2013-08-09 16:19:00,73.0,67.9,29.61,NNE,14,0.0,8.0,84,0.00,,,0.00,Wunderground v.1.15,2013-08-09 21:19:00,
2013-08-09 16:24:00,73.1,68.0,29.60,NW,318,2.0,6.0,84,0.00,,,0.00,Wunderground v.1.15,2013-08-09 21:24:00,
2013-08-09 16:29:00,73.4,68.3,29.60,NW,308,9.0,9.0,84,0.00,,,0.00,Wunderground v.1.15,2013-08-09 21:29:00,
2013-08-09 16:34:00,73.3,68.2,29.60,NNE,22,7.0,10.0,84,0.00,,,0.00,Wunderground v.1.15,2013-08-09 21:34:00,
2013-08-09 16:39:00,73.4,68.6,29.60,North,11,4.0,6.0,85,0.00,,,0.00,Wunderground v.1.15,2013-08-09 21:39:00,
2013-08-09 16:44:00,73.3,68.9,29.60,North,11,5.0,10.0,86,0.00,,,0.00,Wunderground v.1.15,2013-08-09 21:44:00,
2013-08-09 16:49:00,73.6,69.2,29.60,North,353,4.0,5.0,86,0.00,,,0.00,Wunderground v.1.15,2013-08-09 21:49:00,
2013-08-09 16:54:00,74.2,70.1,29.61,WNW,287,7.0,8.0,87,0.00,,,0.00,Wunderground v.1.15,2013-08-09 21:54:00,
2013-08-09 16:59:00,74.4,69.9,29.60,North,356,8.0,8.0,86,0.00,,,0.00,Wunderground v.1.15,2013-08-09 21:59:00,
2013-08-09 17:04:00,74.5,70.0,29.60,NNE,20,2.0,8.0,86,0.00,,,0.00,Wunderground v.1.15,2013-08-09 22:04:00,
2013-08-09 17:09:00,75.0,70.2,29.60,North,355,4.0,4.0,85,0.00,,,0.00,Wunderground v.1.15,2013-08-09 22:09:00,
2013-08-09 17:14:00,75.3,70.5,29.60,NW,322,6.0,6.0,85,0.00,,,0.00,Wunderground v.1.15,2013-08-09 22:14:00,
2013-08-09 17:19:00,75.6,70.4,29.60,NNW,340,2.0,6.0,84,0.00,,,0.00,Wunderground v.1.15,2013-08-09 22:19:00,
2013-08-09 17:24:00,75.8,70.6,29.60,NW,316,1.0,5.0,84,0.00,,,0.00,Wunderground v.1.15,2013-08-09 22:24:00,
2013-08-09 17:30:00,75.6,70.4,29.60,WNW,297,3.0,4.0,84,0.00,,,0.00,Wunderground v.1.15,2013-08-09 22:30:00,
2013-08-09 17:35:00,75.7,70.9,29.60,NNW,329,0.0,4.0,85,0.00,,,0.00,Wunderground v.1.15,2013-08-09 22:35:00,
2013-08-09 17:40:00,76.1,70.6,29.60,North,356,3.0,4.0,83,0.00,,,0.00,Wunderground v.1.15,2013-08-09 22:40:00,
2013-08-09 17:45:00,75.8,70.6,29.60,NNE,20,2.0,5.0,84,0.00,,,0.00,Wunderground v.1.15,2013-08-09 22:45:00,
2013-08-09 17:50:00,75.5,70.7,29.59,WNW,289,2.0,5.0,85,0.00,,,0.00,Wunderground v.1.15,2013-08-09 22:50:00,
2013-08-09 17:55:00,75.7,70.9,29.59,NNW,346,1.0,5.0,85,0.00,,,0.00,Wunderground v.1.15,2013-08-09 22:55:00,
2013-08-09 18:00:00,75.8,71.0,29.59,NNE,25,1.0,3.0,85,0.00,,,0.00,Wunderground v.1.15,2013-08-09 23:00:00,
2013-08-09 18:05:00,75.8,70.3,29.59,NNE,25,3.0,4.0,83,0.00,,,0.00,Wunderground v.1.15,2013-08-09 23:05:00,
2013-08-09 18:10:00,76.0,70.8,29.59,NW,322,4.0,4.0,84,0.00,,,0.00,Wunderground v.1.15,2013-08-09 23:10:00,
2013-08-09 18:15:00,76.1,70.6,29.59,NE,54,3.0,5.0,83,0.00,,,0.00,Wunderground v.1.15,2013-08-09 23:15:00,
2013-08-09 18:20:00,75.9,70.4,29.59,North,349,2.0,3.0,83,0.00,,,0.00,Wunderground v.1.15,2013-08-09 23:20:00,
2013-08-09 18:25:00,75.5,70.3,29.59,ENE,78,0.0,3.0,84,0.00,,,0.00,Wunderground v.1.15,2013-08-09 23:25:00,
2013-08-09 18:30:00,75.4,70.2,29.59,North,357,1.0,2.0,84,0.00,,,0.00,Wunderground v.1.15,2013-08-09 23:30:00,
2013-08-09 18:35:00,75.2,70.4,29.59,ENE,65,0.0,2.0,85,0.00,,,0.00,Wunderground v.1.15,2013-08-09 23:35:00,
2013-08-09 18:40:00,75.2,70.4,29.59,NE,39,0.0,1.0,85,0.00,,,0.00,Wunderground v.1.15,2013-08-09 23:40:00,
2013-08-09 18:46:00,75.2,70.4,29.59,North,8,2.0,2.0,85,0.00,,,0.00,Wunderground v.1.15,2013-08-09 23:46:00,
2013-08-09 18:51:00,75.2,70.7,29.59,North,352,2.0,3.0,86,0.00,,,0.00,Wunderground v.1.15,2013-08-09 23:51:00,
2013-08-09 18:56:00,75.3,70.8,29.59,NE,39,0.0,4.0,86,0.00,,,0.00,Wunderground v.1.15,2013-08-09 23:56:00,
2013-08-09 19:01:00,75.3,70.8,29.60,NNE,18,0.0,1.0,86,0.00,,,0.00,Wunderground v.1.15,2013-08-10 00:01:00,
2013-08-09 19:06:00,75.0,70.5,29.60,NNW,330,1.0,4.0,86,0.00,,,0.00,Wunderground v.1.15,2013-08-10 00:06:00,
2013-08-09 19:11:00,74.8,69.6,29.60,NE,44,0.0,4.0,84,0.00,,,0.00,Wunderground v.1.15,2013-08-10 00:11:00,
2013-08-09 19:16:00,74.5,69.7,29.60,NE,41,1.0,5.0,85,0.00,,,0.00,Wunderground v.1.15,2013-08-10 00:16:00,
2013-08-09 19:21:00,74.4,69.6,29.60,North,5,0.0,2.0,85,0.00,,,0.00,Wunderground v.1.15,2013-08-10 00:21:00,
2013-08-09 19:26:00,74.3,69.8,29.60,North,353,0.0,2.0,86,0.00,,,0.00,Wunderground v.1.15,2013-08-10 00:26:00,
2013-08-09 19:31:00,74.2,69.7,29.60,NNE,18,1.0,2.0,86,0.00,,,0.00,Wunderground v.1.15,2013-08-10 00:31:00,
2013-08-09 19:36:00,74.1,70.0,29.60,North,358,2.0,2.0,87,0.00,,,0.00,Wunderground v.1.15,2013-08-10 00:36:00,
2013-08-09 19:41:00,73.9,69.4,29.61,NNW,337,3.0,4.0,86,0.00,,,0.00,Wunderground v.1.15,2013-08-10 00:41:00,
2013-08-09 19:46:00,73.7,69.6,29.61,North,359,2.0,5.0,87,0.00,,,0.00,Wunderground v.1.15,2013-08-10 00:46:00,
2013-08-09 19:51:00,73.6,69.5,29.61,North,11,3.0,5.0,87,0.00,,,0.00,Wunderground v.1.15,2013-08-10 00:51:00,
2013-08-09 19:56:00,73.6,69.5,29.61,NW,319,1.0,5.0,87,0.00,,,0.00,Wunderground v.1.15,2013-08-10 00:56:00,
2013-08-09 20:01:00,73.6,69.5,29.61,NNW,342,2.0,3.0,87,0.00,,,0.00,Wunderground v.1.15,2013-08-10 01:01:00,
2013-08-09 20:06:00,73.5,69.7,29.61,NNW,334,2.0,4.0,88,0.00,,,0.00,Wunderground v.1.15,2013-08-10 01:06:00,
2013-08-09 20:11:00,73.5,69.4,29.61,NNE,13,3.0,5.0,87,0.00,,,0.00,Wunderground v.1.15,2013-08-10 01:11:00,
2013-08-09 20:16:00,73.4,69.6,29.62,NNW,347,2.0,5.0,88,0.00,,,0.00,Wunderground v.1.15,2013-08-10 01:16:00,
2013-08-09 20:21:00,73.3,69.5,29.62,North,5,3.0,5.0,88,0.00,,,0.00,Wunderground v.1.15,2013-08-10 01:21:00,
2013-08-09 20:26:00,73.2,69.4,29.62,NE,43,3.0,7.0,88,0.00,,,0.00,Wunderground v.1.15,2013-08-10 01:26:00,
2013-08-09 20:31:00,73.1,69.7,29.63,NNW,331,4.0,4.0,89,0.00,,,0.00,Wunderground v.1.15,2013-08-10 01:31:00,
2013-08-09 20:36:00,73.0,69.9,29.62,NNW,329,7.0,7.0,90,0.00,,,0.00,Wunderground v.1.15,2013-08-10 01:36:00,
2013-08-09 20:41:00,72.8,69.7,29.63,NW,318,4.0,6.0,90,0.00,,,0.00,Wunderground v.1.15,2013-08-10 01:41:00,
2013-08-09 20:46:00,72.6,69.5,29.63,NW,321,5.0,8.0,90,0.00,,,0.00,Wunderground v.1.15,2013-08-10 01:46:00,
2013-08-09 20:51:00,72.4,69.6,29.63,North,354,1.0,4.0,91,0.00,,,0.00,Wunderground v.1.15,2013-08-10 01:51:00,
2013-08-09 20:56:00,72.4,69.3,29.63,NNE,23,3.0,5.0,90,0.00,,,0.00,Wunderground v.1.15,2013-08-10 01:56:00,
2013-08-09 21:01:00,72.3,69.2,29.63,NE,44,3.0,4.0,90,0.00,,,0.00,Wunderground v.1.15,2013-08-10 02:01:00,
2013-08-09 21:06:00,72.2,68.8,29.64,NNE,29,2.0,6.0,89,0.00,,,0.00,Wunderground v.1.15,2013-08-10 02:06:00,
2013-08-09 21:11:00,72.3,69.2,29.64,NNE,28,1.0,3.0,90,0.00,,,0.00,Wunderground v.1.15,2013-08-10 02:11:00,
2013-08-09 21:16:00,72.3,69.2,29.64,NE,48,1.0,3.0,90,0.00,,,0.00,Wunderground v.1.15,2013-08-10 02:16:00,
2013-08-09 21:21:00,72.2,69.4,29.64,NE,50,1.0,3.0,91,0.00,,,0.00,Wunderground v.1.15,2013-08-10 02:21:00,
2013-08-09 21:26:00,72.1,69.3,29.64,NNW,347,2.0,4.0,91,0.00,,,0.00,Wunderground v.1.15,2013-08-10 02:26:00,
2013-08-09 21:31:00,72.0,69.2,29.64,NNE,14,1.0,3.0,91,0.00,,,0.00,Wunderground v.1.15,2013-08-10 02:31:00,
2013-08-09 21:36:00,71.9,69.1,29.65,NE,47,2.0,4.0,91,0.00,,,0.00,Wunderground v.1.15,2013-08-10 02:36:00,
2013-08-09 21:41:00,71.8,69.0,29.65,NW,322,3.0,3.0,91,0.00,,,0.00,Wunderground v.1.15,2013-08-10 02:41:00,
2013-08-09 21:46:00,71.9,69.1,29.65,North,360,3.0,4.0,91,0.00,,,0.00,Wunderground v.1.15,2013-08-10 02:46:00,
2013-08-09 21:51:00,71.8,69.0,29.66,NE,43,3.0,5.0,91,0.00,,,0.00,Wunderground v.1.15,2013-08-10 02:51:00,
2013-08-09 21:56:00,71.8,69.0,29.65,North,360,2.0,5.0,91,0.00,,,0.00,Wunderground v.1.15,2013-08-10 02:56:00,
2013-08-09 22:01:00,71.8,68.7,29.65,NE,54,1.0,4.0,90,0.00,,,0.00,Wunderground v.1.15,2013-08-10 03:01:00,
2013-08-09 22:06:00,71.8,69.0,29.65,NE,37,0.0,4.0,91,0.00,,,0.00,Wunderground v.1.15,2013-08-10 03:06:00,
2013-08-09 22:11:00,71.7,68.9,29.66,NE,47,0.0,4.0,91,0.00,,,0.00,Wunderground v.1.15,2013-08-10 03:11:00,
2013-08-09 22:16:00,71.6,68.8,29.66,NE,43,0.0,4.0,91,0.00,,,0.00,Wunderground v.1.15,2013-08-10 03:16:00,
2013-08-09 22:21:00,71.7,68.9,29.66,NNE,15,1.0,3.0,91,0.00,,,0.00,Wunderground v.1.15,2013-08-10 03:21:00,
2013-08-09 22:26:00,71.7,68.9,29.66,North,356,2.0,3.0,91,0.00,,,0.00,Wunderground v.1.15,2013-08-10 03:26:00,
2013-08-09 22:31:00,71.7,68.9,29.66,North,10,3.0,3.0,91,0.00,,,0.00,Wunderground v.1.15,2013-08-10 03:31:00,
2013-08-09 22:36:00,71.6,69.2,29.66,North,356,1.0,4.0,92,0.00,,,0.00,Wunderground v.1.15,2013-08-10 03:36:00,
2013-08-09 22:41:00,71.4,69.0,29.66,NNE,26,1.0,3.0,92,0.00,,,0.00,Wunderground v.1.15,2013-08-10 03:41:00,
2013-08-09 22:46:00,71.3,68.9,29.66,NNE,15,0.0,3.0,92,0.00,,,0.00,Wunderground v.1.15,2013-08-10 03:46:00,
2013-08-09 22:51:00,71.3,68.9,29.66,NNW,345,2.0,2.0,92,0.00,,,0.00,Wunderground v.1.15,2013-08-10 03:51:00,
2013-08-09 22:56:00,71.2,68.8,29.66,NNW,340,2.0,4.0,92,0.00,,,0.00,Wunderground v.1.15,2013-08-10 03:56:00,
2013-08-09 23:01:00,71.2,68.8,29.66,NNE,14,2.0,3.0,92,0.00,,,0.00,Wunderground v.1.15,2013-08-10 04:01:00,
2013-08-09 23:06:00,71.2,68.8,29.66,NNW,340,3.0,4.0,92,0.00,,,0.00,Wunderground v.1.15,2013-08-10 04:06:00,
2013-08-09 23:11:00,71.2,69.1,29.66,NNE,30,2.0,3.0,93,0.00,,,0.00,Wunderground v.1.15,2013-08-10 04:11:00,
2013-08-09 23:16:00,71.1,69.0,29.66,NNE,32,3.0,5.0,93,0.00,,,0.00,Wunderground v.1.15,2013-08-10 04:16:00,
2013-08-09 23:21:00,71.0,68.9,29.66,North,11,3.0,4.0,93,0.00,,,0.00,Wunderground v.1.15,2013-08-10 04:21:00,
2013-08-09 23:26:00,71.0,68.9,29.66,North,11,2.0,4.0,93,0.00,,,0.00,Wunderground v.1.15,2013-08-10 04:26:00,
2013-08-09 23:31:00,70.9,68.8,29.66,NNE,28,0.0,2.0,93,0.00,,,0.00,Wunderground v.1.15,2013-08-10 04:31:00,
2013-08-09 23:36:00,70.9,68.8,29.66,North,360,1.0,2.0,93,0.00,,,0.00,Wunderground v.1.15,2013-08-10 04:36:00,
2013-08-09 23:41:00,70.9,68.8,29.66,NNW,342,2.0,2.0,93,0.00,,,0.00,Wunderground v.1.15,2013-08-10 04:41:00,
2013-08-09 23:46:00,70.8,69.0,29.66,North,11,0.0,4.0,94,0.00,,,0.00,Wunderground v.1.15,2013-08-10 04:46:00,
2013-08-09 23:51:00,70.7,68.9,29.66,NNE,18,1.0,4.0,94,0.00,,,0.00,Wunderground v.1.15,2013-08-10 04:51:00,
2013-08-09 23:56:00,70.6,68.8,29.66,NNE,19,3.0,6.0,94,0.00,,,0.00,Wunderground v.1.15,2013-08-10 04:56:00,